Time;durP1;ratioP1;P1;durP2;ratioP2;P2;SDS_P1;SDS_P2;PMS_P1;PMS_P2;Temp;Humidity;BMP_temperature;BMP_pressure;BME280_temperature;BME280_humidity;BME280_pressure;Samples;Min_cycle;Max_cycle;Signal;HPM_P1;HPM_P2
2022/11/16 00:01:01;;;;;;;109.23;54.53;;;6.90;99.90;;;6.80;71.19;94732.72;5004726;28;20473;-62
2022/11/16 00:03:30;;;;;;;113.77;55.97;;;6.90;99.90;;;6.76;71.12;94726.91;5006656;28;20453;-60
2022/11/16 00:05:57;;;;;;;122.10;56.50;;;6.90;99.90;;;6.78;71.14;94721.56;5007049;28;20478;-56
2022/11/16 00:08:25;;;;;;;127.43;60.57;;;6.90;99.90;;;6.76;71.32;94720.84;5006639;28;20462;-58
2022/11/16 00:10:52;;;;;;;145.27;65.40;;;6.90;99.90;;;6.73;70.92;94727.13;5001945;28;20466;-60
2022/11/16 00:13:21;;;;;;;136.13;62.93;;;6.90;99.90;;;6.73;71.08;94726.31;5006919;28;20460;-56
2022/11/16 00:15:55;;;;;;;153.27;70.37;;;6.90;99.90;;;6.74;71.28;94726.19;5007229;28;20485;-54
2022/11/16 00:18:23;;;;;;;159.90;74.93;;;6.90;99.90;;;6.74;70.97;94723.59;5003841;28;20578;-59
2022/11/16 00:20:50;;;;;;;168.83;78.53;;;6.90;99.90;;;6.74;70.84;94720.13;5006741;28;20528;-59
2022/11/16 00:23:17;;;;;;;167.20;78.63;;;6.90;99.90;;;6.72;71.60;94722.84;5006451;28;20997;-60
2022/11/16 00:25:46;;;;;;;172.07;78.70;;;6.90;99.90;;;6.72;70.98;94719.41;5006703;28;20485;-57
2022/11/16 00:28:13;;;;;;;177.70;80.83;;;6.80;99.90;;;6.71;71.13;94715.97;5006460;28;20458;-60
2022/11/16 00:30:42;;;;;;;164.00;75.40;;;6.90;99.90;;;6.69;70.76;94717.03;5006425;28;20470;-60
2022/11/16 00:33:11;;;;;;;168.70;77.50;;;6.80;99.90;;;6.66;70.84;94709.44;5006548;28;20503;-59
2022/11/16 00:35:39;;;;;;;182.70;83.60;;;6.80;99.90;;;6.62;70.68;94708.84;5008510;28;21321;-56
2022/11/16 00:38:06;;;;;;;187.47;80.93;;;6.80;99.90;;;6.60;70.89;94701.13;5006164;28;20505;-58
2022/11/16 00:40:33;;;;;;;178.57;85.30;;;6.80;99.90;;;6.60;70.94;94697.69;5006660;28;20485;-58
2022/11/16 00:43:01;;;;;;;181.50;83.00;;;6.70;99.90;;;6.53;70.52;94707.78;5006027;28;21036;-59
2022/11/16 00:45:28;;;;;;;179.47;80.17;;;6.70;99.90;;;6.51;71.03;94701.03;4999014;28;21152;-59
2022/11/16 00:47:57;;;;;;;178.70;80.30;;;6.60;99.90;;;6.52;70.78;94702.69;5006040;28;20827;-56
2022/11/16 00:50:24;;;;;;;180.10;81.47;;;6.60;99.90;;;6.53;71.20;94702.56;5005867;28;20508;-56
2022/11/16 00:52:51;;;;;;;182.90;79.20;;;6.70;99.90;;;6.55;70.98;94699.81;5006340;28;20527;-53
2022/11/16 00:55:18;;;;;;;173.03;81.10;;;6.70;99.90;;;6.54;71.50;94703.41;5005964;28;20981;-56
2022/11/16 00:57:46;;;;;;;181.17;78.47;;;6.70;99.90;;;6.55;71.47;94686.75;5005606;28;20489;-54
2022/11/16 01:00:14;;;;;;;165.40;79.30;;;6.70;99.90;;;6.55;70.82;94686.75;5001950;28;20488;-58
2022/11/16 01:02:42;;;;;;;188.40;80.60;;;6.70;99.90;;;6.50;71.66;94675.84;5002201;28;20457;-55
2022/11/16 01:05:10;;;;;;;177.47;78.37;;;6.70;99.90;;;6.48;70.74;94681.19;5001898;28;20480;-56
2022/11/16 01:07:38;;;;;;;158.93;76.20;;;6.70;99.90;;;6.43;70.96;94681.56;5005553;28;20457;-56
2022/11/16 01:10:08;;;;;;;177.87;77.10;;;6.60;99.90;;;6.42;71.73;94679.88;5005864;28;20481;-55
2022/11/16 01:12:34;;;;;;;171.73;83.43;;;6.60;99.90;;;6.43;71.61;94675.50;4999613;28;20459;-59
2022/11/16 01:15:01;;;;;;;173.53;81.87;;;6.50;99.90;;;6.42;71.29;94679.06;5005511;28;20473;-61
2022/11/16 01:17:28;;;;;;;161.67;82.00;;;6.60;99.90;;;6.41;71.95;94674.78;5003011;28;20709;-57
2022/11/16 01:19:56;;;;;;;171.47;82.60;;;6.60;99.90;;;6.41;71.10;94673.00;5004964;28;20994;-60
2022/11/16 01:22:24;;;;;;;170.70;78.60;;;6.60;99.90;;;6.39;71.49;94664.44;5005681;28;20808;-59
2022/11/16 01:24:51;;;;;;;169.67;81.17;;;6.50;99.90;;;6.37;70.82;94673.38;5005608;28;20844;-57
2022/11/16 01:27:19;;;;;;;167.07;75.97;;;6.50;99.90;;;6.36;70.98;94669.09;5005809;28;20990;-56
2022/11/16 01:29:46;;;;;;;163.23;76.10;;;6.50;99.90;;;6.34;71.27;94669.19;5005417;28;20474;-56
2022/11/16 01:32:13;;;;;;;175.37;79.10;;;6.50;99.90;;;6.32;71.28;94663.28;5005586;28;21495;-56
2022/11/16 01:34:40;;;;;;;164.60;79.30;;;6.50;99.90;;;6.30;70.88;94657.31;5005590;28;20830;-59
2022/11/16 01:37:08;;;;;;;158.37;76.97;;;6.50;99.90;;;6.29;70.18;94660.91;5006004;28;20519;-56
2022/11/16 01:39:37;;;;;;;185.00;86.13;;;6.50;99.90;;;6.24;70.50;94655.19;5005343;28;20493;-58
2022/11/16 01:42:04;;;;;;;193.70;81.00;;;6.40;99.90;;;6.24;70.41;94655.19;5005910;28;20453;-59
2022/11/16 01:45:06;;;;;;;168.40;79.00;;;6.40;99.90;;;6.22;70.89;94651.88;5005601;28;20476;-56
2022/11/16 01:47:33;;;;;;;174.10;77.17;;;6.40;99.90;;;6.22;70.58;94657.09;5003604;28;20541;-60
2022/11/16 01:50:07;;;;;;;172.97;79.50;;;6.40;99.90;;;6.20;70.90;94662.44;5005383;28;20482;-56
2022/11/16 01:52:36;;;;;;;166.43;76.33;;;6.40;99.90;;;6.21;70.06;94655.41;5003315;28;20930;-60
2022/11/16 01:55:05;;;;;;;157.63;72.73;;;6.30;99.90;;;6.19;70.22;94662.56;5005290;28;20583;-56
2022/11/16 01:57:35;;;;;;;159.53;72.87;;;6.30;99.90;;;6.16;70.51;94658.38;5005290;28;20461;-59
2022/11/16 02:00:07;;;;;;;165.33;72.27;;;6.30;99.90;;;6.15;70.14;94653.28;5001624;28;20497;-54
2022/11/16 02:02:34;;;;;;;166.97;72.20;;;6.30;99.90;;;6.13;70.37;94647.34;5004347;28;20446;-54
2022/11/16 02:05:01;;;;;;;176.93;71.47;;;6.30;99.90;;;6.12;70.22;94637.84;5001811;28;20732;-58
2022/11/16 02:10:44;;;;;;;163.73;71.87;;;6.30;99.90;;;6.08;70.03;94624.22;5000538;28;20466;-55
2022/11/16 02:13:31;;;;;;;149.57;72.67;;;6.20;99.90;;;6.05;70.05;94629.66;5003950;28;20444;-60
2022/11/16 02:16:03;;;;;;;160.87;71.50;;;6.20;99.90;;;6.01;69.64;94623.00;5003042;28;20488;-54
2022/11/16 02:18:36;;;;;;;158.30;71.57;;;6.20;99.90;;;5.99;69.86;94630.16;4998124;28;20484;-58
2022/11/16 02:21:38;;;;;;;181.70;77.47;;;6.20;99.90;;;5.93;69.56;94621.81;5004948;28;20477;-58
2022/11/16 02:24:43;;;;;;;147.40;64.40;;;6.10;99.90;;;5.88;69.41;94618.69;4997511;28;20476;-54
2022/11/16 02:27:50;;;;;;;134.90;64.27;;;6.10;99.90;;;5.83;69.43;94631.28;5003907;28;20477;-55
2022/11/16 02:30:19;;;;;;;148.20;67.63;;;6.00;99.90;;;5.79;69.90;94629.84;4998850;28;20823;-59
2022/11/16 02:32:49;;;;;;;149.03;66.10;;;6.00;99.90;;;5.75;69.04;94639.69;5007525;28;20553;-57
2022/11/16 02:35:19;;;;;;;144.40;64.67;;;5.90;99.90;;;5.71;69.24;94632.22;5000828;28;20563;-59
2022/11/16 02:37:49;;;;;;;152.03;69.33;;;5.90;99.90;;;5.67;69.98;94618.56;5008230;28;20476;-55
2022/11/16 02:40:17;;;;;;;134.27;62.47;;;5.90;99.90;;;5.65;69.50;94628.28;5008344;28;20501;-59
2022/11/16 02:42:51;;;;;;;145.23;65.47;;;5.80;99.90;;;5.61;69.82;94632.09;5008459;28;20769;-54
2022/11/16 02:45:22;;;;;;;162.90;65.97;;;5.80;99.90;;;5.59;69.96;94628.75;5008275;28;21174;-55
2022/11/16 02:47:50;;;;;;;150.37;62.43;;;5.80;99.90;;;5.57;70.22;94622.81;5006535;28;20457;-56
2022/11/16 02:50:20;;;;;;;150.10;65.90;;;5.70;99.90;;;5.55;70.39;94627.31;5007919;28;20919;-59
2022/11/16 02:52:47;;;;;;;172.80;68.70;;;5.70;99.90;;;5.52;70.69;94628.38;5007942;28;20457;-56
2022/11/16 02:55:14;;;;;;;148.77;65.07;;;5.70;99.90;;;5.52;70.88;94622.34;5008026;28;20540;-58
2022/11/16 02:57:48;;;;;;;149.33;66.27;;;5.70;99.90;;;5.52;70.72;94617.13;5007986;28;20507;-54
2022/11/16 03:00:21;;;;;;;152.80;62.77;;;5.70;99.90;;;5.50;70.85;94619.00;5000828;28;20501;-55
2022/11/16 03:02:58;;;;;;;163.10;65.67;;;5.70;99.90;;;5.50;71.00;94621.59;5005412;28;20450;-56
2022/11/16 03:05:31;;;;;;;151.10;63.50;;;5.70;99.90;;;5.48;71.25;94611.28;5007823;28;20524;-55
2022/11/16 03:08:09;;;;;;;259.77;68.10;;;5.70;99.90;;;5.47;71.19;94606.19;5008144;28;20944;-56
2022/11/16 03:13:23;;;;;;;129.20;56.10;;;5.60;99.90;;;5.38;71.80;94605.94;5007136;28;20437;-58
2022/11/16 03:15:52;;;;;;;145.00;59.40;;;5.60;99.90;;;5.37;71.64;94600.84;5007726;28;20496;-58
2022/11/16 03:18:21;;;;;;;140.17;57.33;;;5.60;99.90;;;5.37;72.06;94598.22;5004004;28;20458;-59
2022/11/16 03:20:48;;;;;;;126.00;56.37;;;5.60;99.90;;;5.37;72.16;94606.88;5007953;28;20480;-60
2022/11/16 03:23:15;;;;;;;128.40;54.80;;;5.60;99.90;;;5.39;72.24;94607.63;5008555;28;20512;-59
2022/11/16 03:25:47;;;;;;;142.50;56.97;;;5.60;99.90;;;5.41;72.42;94598.81;5007976;28;20944;-58
2022/11/16 03:28:17;;;;;;;125.07;54.53;;;5.60;99.90;;;5.40;72.47;94592.78;5007460;28;20509;-62
2022/11/16 03:30:49;;;;;;;133.23;54.60;;;5.60;99.90;;;5.38;72.48;94595.50;5007906;28;20547;-60
2022/11/16 03:33:20;;;;;;;145.53;55.50;;;5.60;99.90;;;5.37;72.73;94600.84;5007627;28;20592;-56
2022/11/16 03:35:52;;;;;;;129.03;54.00;;;5.60;99.90;;;5.41;72.75;94604.88;5001640;28;20473;-59
2022/11/16 03:38:19;;;;;;;156.57;56.67;;;5.60;99.90;;;5.43;72.44;94599.56;5007870;28;20580;-59
2022/11/16 03:40:47;;;;;;;142.90;56.47;;;5.60;99.90;;;5.46;72.74;94601.94;5007202;28;20547;-57
2022/11/16 03:43:14;;;;;;;138.87;54.40;;;5.60;99.90;;;5.48;72.38;94598.25;5006875;28;20807;-59
2022/11/16 03:45:41;;;;;;;144.37;57.50;;;5.70;99.90;;;5.50;72.54;94593.75;5007585;28;20474;-56
2022/11/16 03:48:08;;;;;;;186.60;70.27;;;5.70;99.90;;;5.52;72.50;94593.66;5006754;28;20710;-58
2022/11/16 03:50:37;;;;;;;181.33;68.73;;;5.70;99.90;;;5.54;71.98;94596.97;5007333;28;20482;-58
2022/11/16 03:53:04;;;;;;;187.77;68.93;;;5.70;99.90;;;5.56;72.29;94595.06;5007223;28;20477;-58
2022/11/16 03:55:31;;;;;;;166.43;65.47;;;5.70;99.90;;;5.55;72.25;94586.41;5007278;28;21005;-60
2022/11/16 03:57:59;;;;;;;160.03;64.80;;;5.70;99.90;;;5.58;72.30;94590.56;5006779;28;20460;-59
2022/11/16 04:00:26;;;;;;;162.60;61.13;;;5.80;99.90;;;5.59;71.91;94587.00;5000628;28;20504;-56
2022/11/16 04:02:53;;;;;;;174.67;66.43;;;5.80;99.90;;;5.62;72.07;94585.94;5007358;28;20461;-56
2022/11/16 04:24:41;;;;;;;190.67;64.57;;;5.80;99.90;;;5.63;72.37;94557.13;5003369;28;20456;-55
2022/11/16 04:29:56;;;;;;;183.17;64.70;;;5.80;99.90;;;5.66;72.00;94551.69;5005354;28;20887;-55
2022/11/16 04:38:07;;;;;;;205.43;68.53;;;5.90;99.90;;;5.72;71.80;94548.59;4926356;29;20508;-58
2022/11/16 04:40:36;;;;;;;171.43;67.63;;;5.90;99.90;;;5.73;72.56;94547.66;4926227;29;20501;-55
2022/11/16 04:43:04;;;;;;;184.40;69.13;;;5.90;99.90;;;5.76;72.17;94554.41;4959949;28;20512;-56
2022/11/16 04:48:17;;;;;;;203.40;64.80;;;5.90;99.90;;;5.81;72.42;94554.91;5005730;28;21020;-57
2022/11/16 04:50:44;;;;;;;201.90;74.00;;;6.00;99.90;;;5.85;72.46;94550.25;5005962;28;20477;-53
2022/11/16 04:53:16;;;;;;;182.60;67.37;;;6.00;99.90;;;5.88;72.16;94550.84;5006102;28;20462;-57
2022/11/16 04:55:45;;;;;;;207.87;72.43;;;6.00;99.90;;;5.91;72.07;94555.81;5005342;28;20814;-58
2022/11/16 04:58:12;;;;;;;196.27;72.40;;;6.00;99.90;;;5.93;72.40;94555.72;5004963;28;20462;-58
2022/11/16 05:00:39;;;;;;;171.63;66.30;;;6.10;99.90;;;5.96;72.26;94552.03;5000756;28;20493;-58
2022/11/16 05:03:07;;;;;;;185.43;67.23;;;6.10;99.90;;;5.99;71.72;94551.81;5005051;28;20457;-57
2022/11/16 05:05:34;;;;;;;169.60;66.37;;;6.10;99.90;;;6.01;71.95;94544.69;5005785;28;21092;-57
2022/11/16 05:08:02;;;;;;;185.07;65.87;;;6.20;99.90;;;6.02;71.99;94549.78;5006122;28;20457;-58
2022/11/16 05:10:29;;;;;;;212.97;71.10;;;6.20;99.90;;;6.03;72.26;94546.25;5002519;28;20474;-57
2022/11/16 05:12:58;;;;;;;201.83;69.33;;;6.20;99.90;;;6.04;71.65;94534.88;5006444;28;20559;-57
2022/11/16 05:15:25;;;;;;;209.37;75.50;;;6.20;99.90;;;6.07;71.96;94529.41;5005201;28;20527;-56
2022/11/16 05:17:54;;;;;;;213.90;70.27;;;6.20;99.90;;;6.06;71.92;94532.13;5001583;28;20462;-57
2022/11/16 05:25:53;;;;;;;219.57;68.90;;;6.20;99.90;;;6.12;71.67;94538.63;5005558;28;20557;-56
2022/11/16 05:28:21;;;;;;;238.73;80.13;;;6.20;99.90;;;6.13;72.26;94542.91;5004569;28;20453;-56
2022/11/16 05:30:49;;;;;;;197.87;73.53;;;6.30;99.90;;;6.17;72.06;94544.34;5005434;28;20751;-57
2022/11/16 05:33:17;;;;;;;216.73;73.40;;;6.30;99.90;;;6.19;72.25;94539.81;4997467;28;20450;-61
2022/11/16 05:35:44;;;;;;;219.33;74.07;;;6.30;99.90;;;6.20;72.05;94544.91;5001542;28;20492;-57
2022/11/16 05:38:12;;;;;;;169.20;69.00;;;6.30;99.90;;;6.23;71.65;94534.22;4997217;28;20988;-57
2022/11/16 05:40:39;;;;;;;214.70;71.80;;;6.40;99.90;;;6.25;72.14;94544.56;5001586;28;20571;-55
2022/11/16 05:43:06;;;;;;;216.17;71.70;;;6.40;99.90;;;6.27;72.25;94534.81;4997859;28;20533;-57
2022/11/16 05:45:35;;;;;;;208.77;70.07;;;6.40;99.90;;;6.27;71.96;94545.25;5001401;28;20473;-57
2022/11/16 05:48:02;;;;;;;216.87;76.73;;;6.40;99.90;;;6.28;71.60;94545.13;4997032;28;20869;-59
2022/11/16 05:50:30;;;;;;;227.70;69.83;;;6.50;99.90;;;6.30;71.97;94544.19;4999992;28;20469;-54
2022/11/16 05:52:57;;;;;;;218.73;70.50;;;6.40;99.90;;;6.31;71.56;94549.28;4997852;28;20516;-56
2022/11/16 05:55:24;;;;;;;228.50;73.63;;;6.50;99.90;;;6.32;72.00;94542.28;5001573;28;20480;-59
2022/11/16 05:57:52;;;;;;;221.17;71.30;;;6.50;99.90;;;6.35;71.90;94545.50;5001574;28;20505;-58
2022/11/16 06:00:20;;;;;;;211.50;67.57;;;6.50;99.90;;;6.37;72.04;94545.38;4997676;28;20496;-57
2022/11/16 06:02:48;;;;;;;207.23;75.70;;;6.50;99.90;;;6.38;71.69;94545.25;5001608;28;20458;-56
2022/11/16 06:05:16;;;;;;;212.73;71.93;;;6.50;99.90;;;6.39;71.89;94546.91;5003986;28;20565;-59
2022/11/16 06:07:43;;;;;;;224.63;74.27;;;6.50;99.90;;;6.41;71.59;94550.22;5000781;28;20461;-55
2022/11/16 06:10:10;;;;;;;236.50;69.27;;;6.50;99.90;;;6.45;74.37;94551.63;5001235;28;20564;-56
2022/11/16 06:12:38;;;;;;;214.00;68.67;;;6.60;99.90;;;6.55;75.05;94549.13;5006206;28;20950;-59
2022/11/16 06:15:06;;;;;;;195.70;67.80;;;6.60;99.90;;;6.68;74.78;94548.97;4999443;28;20862;-59
2022/11/16 06:17:33;;;;;;;207.43;73.50;;;6.80;99.90;;;6.82;75.66;94550.47;4996766;28;20521;-59
2022/11/16 06:20:02;;;;;;;203.67;70.57;;;6.90;99.90;;;6.93;74.32;94537.31;4999917;28;20497;-60
2022/11/16 06:22:30;;;;;;;202.37;71.87;;;7.00;99.90;;;7.07;74.21;94545.84;5001004;28;20461;-56
2022/11/16 06:24:57;;;;;;;211.30;67.70;;;7.10;99.90;;;7.18;73.85;94543.16;5000732;28;20497;-59
2022/11/16 06:27:25;;;;;;;199.97;68.57;;;7.20;99.90;;;7.29;73.45;94537.84;5000010;28;20457;-57
2022/11/16 06:29:52;;;;;;;202.63;67.40;;;7.30;99.90;;;7.41;73.01;94545.66;5004981;28;20481;-56
2022/11/16 06:32:19;;;;;;;219.10;76.93;;;7.50;99.90;;;7.50;72.76;94537.03;4998949;28;20462;-55
2022/11/16 06:34:46;;;;;;;219.30;73.60;;;7.60;99.90;;;7.53;72.06;94545.44;4999695;28;20470;-56
2022/11/16 06:37:15;;;;;;;200.00;73.20;;;7.60;99.90;;;7.53;71.60;94539.38;5004944;28;20454;-59
2022/11/16 06:39:42;;;;;;;215.60;73.73;;;7.60;99.90;;;7.52;71.43;94546.38;4998885;28;20890;-54
2022/11/16 06:42:09;;;;;;;223.40;75.23;;;7.60;99.90;;;7.51;71.38;94542.13;5000703;28;20466;-53
2022/11/16 06:44:37;;;;;;;212.83;71.43;;;7.60;99.90;;;7.48;71.83;94537.16;5000504;28;20474;-58
2022/11/16 06:47:04;;;;;;;218.13;74.20;;;7.60;99.90;;;7.47;71.34;94527.63;5000177;28;20511;-59
2022/11/16 06:49:31;;;;;;;216.17;78.13;;;7.60;99.90;;;7.45;71.63;94534.78;4997990;28;20478;-56
2022/11/16 06:51:58;;;;;;;233.13;81.97;;;7.60;99.90;;;7.40;71.22;94526.47;5001232;28;20458;-55
2022/11/16 06:54:27;;;;;;;213.93;75.87;;;7.50;99.90;;;7.38;71.53;94530.22;5001742;28;20481;-55
2022/11/16 06:56:54;;;;;;;230.57;79.30;;;7.50;99.90;;;7.38;72.13;94536.25;5002034;28;21451;-55
2022/11/16 06:59:22;;;;;;;235.63;76.10;;;7.50;99.90;;;7.40;71.66;94534.34;5004086;28;20827;-59
2022/11/16 07:01:49;;;;;;;231.83;81.13;;;7.50;99.90;;;7.40;72.25;94528.28;5007634;28;20450;-59
2022/11/16 07:04:17;;;;;;;236.93;79.50;;;7.50;99.90;;;7.38;72.04;94531.03;5007954;28;20474;-59
2022/11/16 07:06:44;;;;;;;236.20;74.17;;;7.50;99.90;;;7.39;72.36;94522.22;5008081;28;20465;-55
2022/11/16 07:09:14;;;;;;;214.90;78.60;;;7.50;99.90;;;7.43;72.27;94533.25;5007926;28;20482;-60
2022/11/16 07:11:42;;;;;;;229.07;75.60;;;7.50;99.90;;;7.47;72.40;94530.25;4998791;28;20453;-59
2022/11/16 07:14:10;;;;;;;219.10;81.70;;;7.60;99.90;;;7.53;72.58;94531.53;5007693;28;20535;-59
2022/11/16 07:16:37;;;;;;;221.43;78.00;;;7.60;99.90;;;7.59;72.69;94527.56;5006912;28;20907;-58
2022/11/16 07:19:05;;;;;;;222.83;74.90;;;7.70;99.90;;;7.64;72.62;94531.44;5003365;28;21002;-59
2022/11/16 07:21:32;;;;;;;214.10;77.40;;;7.70;99.90;;;7.70;72.07;94523.06;5007087;28;20497;-57
2022/11/16 07:23:59;;;;;;;252.53;83.03;;;7.80;99.90;;;7.78;71.84;94527.66;5004020;28;20461;-58
2022/11/16 07:26:27;;;;;;;228.73;82.07;;;7.90;99.90;;;7.82;72.34;94513.34;5000352;28;20820;-57
2022/11/16 07:28:57;;;;;;;236.23;85.37;;;7.90;99.90;;;7.85;71.89;94526.19;5000025;28;20553;-54
2022/11/16 07:31:24;;;;;;;236.60;87.73;;;8.00;99.90;;;7.90;71.63;94523.97;4998905;28;20466;-59
2022/11/16 07:33:52;;;;;;;257.20;89.07;;;8.00;99.90;;;7.92;71.44;94523.00;5012702;28;20561;-56
2022/11/16 07:36:19;;;;;;;249.23;92.57;;;8.00;99.90;;;7.92;71.65;94523.84;5003692;28;20970;-56
2022/11/16 07:38:46;;;;;;;257.07;96.27;;;8.00;99.90;;;7.96;72.01;94514.75;5006731;28;20902;-58
2022/11/16 07:41:15;;;;;;;255.00;94.50;;;8.10;99.90;;;8.02;71.20;94510.78;5004607;28;20839;-57
2022/11/16 07:43:43;;;;;;;261.77;93.13;;;8.10;99.90;;;8.04;71.90;94517.56;5008078;28;20466;-55
2022/11/16 07:46:13;;;;;;;277.87;94.57;;;8.10;99.90;;;8.12;71.54;94514.28;5003711;28;20516;-55
2022/11/16 07:48:41;;;;;;;250.60;90.87;;;8.20;99.90;;;8.19;71.67;94517.16;5006648;28;20449;-55
2022/11/16 07:51:09;;;;;;;223.13;82.90;;;8.20;99.90;;;8.25;71.44;94509.59;5008670;28;20497;-54
2022/11/16 07:53:37;;;;;;;233.07;83.53;;;8.30;99.90;;;8.28;70.92;94510.31;5007426;28;20454;-58
2022/11/16 07:56:05;;;;;;;257.23;86.23;;;8.30;99.90;;;8.30;71.23;94508.38;5001881;28;20469;-58
2022/11/16 07:58:33;;;;;;;217.93;87.17;;;8.40;99.90;;;8.38;70.66;94504.13;5000484;28;20474;-57
2022/11/16 08:01:04;;;;;;;244.40;92.77;;;8.40;99.90;;;8.47;70.80;94502.50;5007216;28;20560;-58
2022/11/16 08:03:33;;;;;;;272.53;95.80;;;8.50;99.90;;;8.53;70.99;94499.31;5005871;28;20889;-54
2022/11/16 08:06:00;;;;;;;258.40;90.00;;;8.60;99.90;;;8.58;70.57;94497.16;5006947;28;20474;-58
2022/11/16 08:08:28;;;;;;;242.77;90.90;;;8.60;99.90;;;8.65;70.44;94499.22;5006733;28;20492;-55
2022/11/16 08:11:00;;;;;;;271.27;92.73;;;8.70;99.90;;;8.69;70.55;94495.34;5002835;28;20481;-56
2022/11/16 08:13:30;;;;;;;265.40;89.50;;;8.80;99.90;;;8.70;70.00;94491.75;5006485;28;20914;-54
2022/11/16 08:16:01;;;;;;;293.37;98.60;;;8.80;99.90;;;8.74;70.22;94490.53;5006621;28;20486;-59
2022/11/16 08:18:28;;;;;;;292.30;97.90;;;8.80;99.90;;;8.81;70.08;94480.31;5002793;28;20486;-53
2022/11/16 08:20:58;;;;;;;241.17;92.80;;;8.80;99.90;;;8.88;69.78;94479.63;5006641;28;20500;-55
2022/11/16 08:23:26;;;;;;;255.00;88.87;;;8.90;99.90;;;9.04;69.69;94478.22;5006361;28;20568;-57
2022/11/16 08:25:57;;;;;;;241.73;89.83;;;9.00;99.90;;;9.19;69.67;94471.56;5006602;28;20985;-54
2022/11/16 08:28:24;;;;;;;252.73;87.73;;;9.20;99.90;;;9.37;69.51;94473.44;5006098;28;20978;-58
2022/11/16 08:30:51;;;;;;;258.70;87.80;;;9.30;99.90;;;9.52;69.22;94475.47;5006561;28;20845;-56
2022/11/16 08:33:20;;;;;;;228.33;81.97;;;9.50;99.90;;;9.61;68.28;94476.41;5005097;28;20453;-59
2022/11/16 08:35:48;;;;;;;245.80;83.27;;;9.60;99.90;;;9.65;68.19;94480.44;5006665;28;20484;-58
2022/11/16 08:38:17;;;;;;;213.03;80.17;;;9.60;99.90;;;9.65;68.01;94475.16;5003440;28;20541;-55
2022/11/16 08:40:44;;;;;;;204.47;73.77;;;9.70;99.90;;;9.66;68.37;94474.19;5006096;28;20497;-55
2022/11/16 08:43:12;;;;;;;201.07;70.57;;;9.70;99.90;;;9.68;68.31;94472.25;5006080;28;20457;-53
2022/11/16 08:45:39;;;;;;;191.23;68.10;;;9.70;99.90;;;9.75;68.29;94466.44;5005927;28;21313;-57
2022/11/16 08:48:07;;;;;;;189.27;68.57;;;9.70;99.90;;;9.83;68.53;94466.53;5006515;28;20535;-58
2022/11/16 08:50:34;;;;;;;186.27;65.27;;;9.80;99.90;;;9.88;68.51;94466.91;5006231;28;20539;-55
2022/11/16 08:53:01;;;;;;;164.53;60.37;;;9.90;99.90;;;9.95;68.53;94468.00;5006166;28;20450;-58
2022/11/16 08:55:30;;;;;;;168.43;62.03;;;9.90;99.90;;;10.00;68.28;94463.13;5005554;28;20477;-57
2022/11/16 08:57:57;;;;;;;175.40;64.87;;;10.00;99.90;;;9.98;68.55;94459.81;5004388;28;20450;-58
2022/11/16 09:00:25;;;;;;;160.90;60.47;;;10.00;99.90;;;10.01;68.39;94456.06;5001981;28;20579;-59
2022/11/16 09:02:52;;;;;;;178.33;59.40;;;10.00;99.90;;;10.07;68.47;94459.91;5005804;28;20454;-56
2022/11/16 09:05:19;;;;;;;130.77;47.73;;;10.10;99.90;;;10.16;68.35;94457.25;5005606;28;20485;-58
2022/11/16 09:07:46;;;;;;;130.63;47.97;;;10.20;99.90;;;10.27;68.21;94450.09;5005744;28;20465;-58
2022/11/16 09:10:14;;;;;;;143.80;55.03;;;10.30;99.90;;;10.40;68.14;94450.59;5004214;28;20478;-55
2022/11/16 09:12:43;;;;;;;162.77;58.67;;;10.40;99.90;;;10.58;68.00;94447.97;5002747;28;20504;-58
2022/11/16 09:15:10;;;;;;;145.60;57.47;;;10.50;99.90;;;10.77;67.53;94432.03;5005099;28;20519;-60
2022/11/16 09:17:38;;;;;;;170.77;60.33;;;10.70;99.90;;;11.06;67.55;94436.22;5001104;28;20465;-56
2022/11/16 09:20:07;;;;;;;142.20;59.17;;;11.00;99.90;;;11.43;66.65;94429.03;5005250;28;20500;-58
2022/11/16 09:22:34;;;;;;;142.30;51.70;;;11.30;99.90;;;11.83;65.67;94417.88;5005846;28;20454;-58
2022/11/16 09:25:01;;;;;;;122.97;50.93;;;11.70;99.90;;;12.28;64.58;94409.81;5006361;28;20466;-56
2022/11/16 09:27:29;;;;;;;136.70;53.50;;;12.00;99.90;;;12.74;63.59;94410.19;5006073;28;20711;-55
2022/11/16 09:29:57;;;;;;;128.00;51.83;;;12.50;99.90;;;13.34;63.37;94410.81;5005566;28;20485;-54
2022/11/16 09:32:25;;;;;;;124.37;51.00;;;13.00;99.90;;;13.99;61.26;94402.69;5004306;28;20962;-57
2022/11/16 09:34:52;;;;;;;126.00;51.63;;;13.60;99.10;;;14.57;60.29;94394.44;5005638;28;20469;-56
2022/11/16 09:37:19;;;;;;;111.67;50.23;;;14.20;98.30;;;15.13;59.35;94388.06;5005865;28;20860;-54
2022/11/16 09:39:47;;;;;;;126.90;50.37;;;14.80;97.50;;;15.71;57.41;94388.31;5005466;28;20477;-58
2022/11/16 09:42:26;;;;;;;112.37;50.13;;;15.30;96.50;;;16.30;56.32;94387.44;5007799;28;20800;-54
2022/11/16 09:45:05;;;;;;;129.43;50.57;;;15.90;95.30;;;16.82;54.31;94372.22;5006756;28;20469;-59
2022/11/16 09:47:43;;;;;;;113.97;45.97;;;16.40;93.60;;;17.33;52.88;94380.00;5006374;28;20551;-58
2022/11/16 09:50:31;;;;;;;95.53;45.67;;;16.90;92.40;;;17.85;52.85;94369.09;5009715;28;20468;-57
2022/11/16 09:53:05;;;;;;;107.27;50.67;;;17.40;92.60;;;18.36;52.32;94360.72;5008858;28;20462;-52
2022/11/16 09:55:34;;;;;;;108.93;49.10;;;17.90;91.60;;;18.79;49.72;94348.91;5009287;28;20547;-54
2022/11/16 09:58:04;;;;;;;101.53;49.63;;;18.30;87.70;;;19.14;50.77;94348.75;5009549;28;20858;-59
2022/11/16 10:00:33;;;;;;;106.70;50.50;;;18.70;88.80;;;19.31;47.97;94341.97;5005611;28;20501;-54
2022/11/16 10:03:04;;;;;;;117.00;52.87;;;18.90;82.40;;;19.56;48.72;94337.84;5009457;28;20449;-57
2022/11/16 10:05:35;;;;;;;117.97;55.43;;;19.10;83.40;;;19.75;48.05;94325.47;5008653;28;20480;-56
2022/11/16 10:08:06;;;;;;;104.90;51.70;;;19.30;81.50;;;19.93;47.54;94325.63;5002303;28;20446;-55
2022/11/16 10:10:36;;;;;;;103.63;49.80;;;19.50;79.00;;;20.11;46.25;94319.63;5004725;28;20491;-55
2022/11/16 10:13:10;;;;;;;115.53;51.90;;;19.70;76.00;;;20.37;47.36;94321.34;5008865;28;20464;-54
2022/11/16 10:15:50;;;;;;;116.90;55.10;;;19.90;78.50;;;20.75;44.53;94307.13;5006851;28;21006;-59
2022/11/16 10:18:27;;;;;;;128.97;57.70;;;20.20;73.50;;;20.93;45.47;94305.59;5001351;28;20449;-59
2022/11/16 10:21:12;;;;;;;113.13;53.83;;;20.50;73.80;;;20.96;44.90;94307.81;5008656;28;20504;-56
2022/11/16 10:23:50;;;;;;;106.87;52.70;;;20.60;71.80;;;21.07;44.79;94300.94;5004025;28;20446;-58
2022/11/16 10:26:25;;;;;;;121.50;55.63;;;20.70;72.70;;;21.06;44.27;94293.94;5004277;28;20521;-55
2022/11/16 10:29:05;;;;;;;126.23;57.13;;;20.80;70.20;;;21.05;44.58;94292.31;5008723;28;20455;-58
2022/11/16 10:31:51;;;;;;;105.50;55.20;;;20.80;69.30;;;21.09;43.08;94283.63;5008344;28;20831;-55
2022/11/16 10:34:20;;;;;;;113.83;56.27;;;20.80;68.50;;;21.02;44.16;94282.88;5006799;28;20477;-55
2022/11/16 10:36:47;;;;;;;106.97;51.80;;;20.80;68.20;;;20.89;44.19;94278.44;5008663;28;20934;-59
2022/11/16 10:39:17;;;;;;;109.33;53.47;;;20.80;67.50;;;20.83;44.39;94281.19;5008232;28;20524;-55
2022/11/16 10:41:45;;;;;;;103.73;54.27;;;20.70;67.60;;;20.76;43.75;94271.38;5007989;28;20523;-57
2022/11/16 10:44:16;;;;;;;108.87;53.40;;;20.60;66.40;;;20.79;44.08;94275.47;5007598;28;20481;-58
2022/11/16 10:46:50;;;;;;;112.47;52.80;;;20.60;67.00;;;20.89;44.01;94269.63;5005970;28;20460;-58
2022/11/16 10:49:19;;;;;;;97.73;53.83;;;20.70;66.50;;;21.07;43.89;94268.84;5008152;28;20469;-57
2022/11/16 10:51:46;;;;;;;110.33;54.20;;;20.80;67.50;;;21.00;43.24;94260.88;5007863;28;20454;-59
2022/11/16 10:54:14;;;;;;;108.57;51.43;;;20.80;65.30;;;20.64;43.71;94258.91;5006820;28;20489;-59
2022/11/16 10:56:44;;;;;;;116.73;55.33;;;20.60;64.80;;;20.31;42.47;94244.75;5008140;28;20457;-59
2022/11/16 10:59:12;;;;;;;101.53;51.60;;;20.40;62.70;;;20.13;44.32;94250.00;5004207;28;20473;-57
2022/11/16 11:01:40;;;;;;;108.73;49.83;;;20.10;65.50;;;20.05;44.09;94245.72;5008511;28;20500;-60